Time;durP1;ratioP1;P1;durP2;ratioP2;P2;SDS_P1;SDS_P2;PMS_P1;PMS_P2;Temp;Humidity;BMP_temperature;BMP_pressure;BME280_temperature;BME280_humidity;BME280_pressure;Samples;Min_cycle;Max_cycle;Signal;HPM_P1;HPM_P2
2023/03/26 00:01:35;;;;;;;8.02;3.63;;;;;;;20.01;48.20;100680.72;5053371;28;20436;-57
2023/03/26 00:04:05;;;;;;;8.02;3.45;;;;;;;20.01;48.28;100672.69;5053427;28;20045;-57
2023/03/26 00:06:37;;;;;;;5.93;3.13;;;;;;;20.01;48.23;100675.34;5053218;28;20053;-52
2023/03/26 00:09:08;;;;;;;7.40;3.65;;;;;;;20.00;48.32;100673.66;5053062;28;20052;-53
2023/03/26 00:11:36;;;;;;;7.68;3.33;;;;;;;20.00;48.24;100668.28;5053518;28;20045;-52
2023/03/26 00:14:04;;;;;;;6.63;3.28;;;;;;;20.00;48.26;100670.97;5053543;28;20044;-53
2023/03/26 00:16:32;;;;;;;6.75;3.17;;;;;;;19.98;48.29;100668.44;5053156;28;20056;-57
2023/03/26 00:19:01;;;;;;;6.50;3.55;;;;;;;19.99;48.38;100666.59;5053263;28;20057;-57
2023/03/26 00:21:30;;;;;;;5.50;3.40;;;;;;;19.99;48.18;100664.75;5053160;28;20059;-57
2023/03/26 00:24:03;;;;;;;7.07;3.88;;;;;;;19.99;48.39;100669.28;5053101;28;20506;-53
2023/03/26 00:26:36;;;;;;;6.18;3.47;;;;;;;19.98;48.29;100660.38;5053073;28;20064;-52
2023/03/26 00:29:05;;;;;;;6.93;3.35;;;;;;;19.98;48.22;100668.44;5053144;28;20049;-51
2023/03/26 00:31:33;;;;;;;5.97;3.42;;;;;;;19.99;48.31;100682.72;5051772;28;20053;-48
2023/03/26 00:34:02;;;;;;;5.25;3.20;;;;;;;19.98;48.33;100671.13;5053330;28;20041;-56
2023/03/26 00:36:34;;;;;;;5.70;3.22;;;;;;;19.98;48.19;100675.66;5052057;28;20056;-48
2023/03/26 00:39:04;;;;;;;7.40;3.72;;;;;;;19.97;48.18;100674.81;5051338;28;20442;-49
2023/03/26 00:41:35;;;;;;;4.35;3.30;;;;;;;19.97;48.42;100666.75;5053021;28;20049;-49
2023/03/26 00:44:03;;;;;;;4.90;3.17;;;;;;;19.97;48.17;100665.88;5052998;28;20391;-49
2023/03/26 00:46:31;;;;;;;6.65;3.40;;;;;;;19.97;48.42;100661.38;5052750;28;20395;-53
2023/03/26 00:49:00;;;;;;;5.85;3.28;;;;;;;19.97;48.35;100668.56;5053101;28;20162;-50
2023/03/26 00:51:28;;;;;;;8.02;3.65;;;;;;;19.97;48.41;100664.06;5056633;28;20476;-49
2023/03/26 00:53:56;;;;;;;6.22;2.95;;;;;;;19.96;48.40;100667.72;5054857;28;20045;-49
2023/03/26 00:56:24;;;;;;;6.28;3.53;;;;;;;19.96;48.22;100664.19;5056372;28;20061;-57
2023/03/26 00:58:51;;;;;;;6.90;3.83;;;;;;;19.95;48.31;100668.72;5055062;28;20049;-57
2023/03/26 01:01:26;;;;;;;6.65;3.67;;;;;;;19.95;48.36;100659.81;5055358;28;20048;-57
2023/03/26 01:03:58;;;;;;;5.35;3.42;;;;;;;19.96;48.32;100666.88;5056225;28;20067;-57
2023/03/26 01:06:37;;;;;;;6.38;3.05;;;;;;;19.95;48.47;100657.97;5055047;28;20052;-50
2023/03/26 01:09:31;;;;;;;6.47;2.90;;;;;;;19.94;48.33;100650.06;5056241;28;20470;-51
2023/03/26 01:12:02;;;;;;;4.40;3.10;;;;;;;19.95;48.36;100652.59;5055762;28;20080;-49
2023/03/26 01:14:29;;;;;;;5.32;3.97;;;;;;;19.95;48.49;100657.13;5056265;28;20049;-49
2023/03/26 01:17:00;;;;;;;6.47;3.35;;;;;;;19.94;48.50;100644.69;5056056;28;20045;-49
2023/03/26 01:19:43;;;;;;;4.90;3.08;;;;;;;19.94;48.50;100637.47;5056132;28;20057;-50
2023/03/26 01:22:15;;;;;;;5.32;2.90;;;;;;;19.94;48.38;100636.63;5056209;28;20049;-52
2023/03/26 01:24:45;;;;;;;4.63;2.83;;;;;;;19.95;48.45;100627.56;5055882;28;20406;-52
2023/03/26 01:27:37;;;;;;;6.20;3.63;;;;;;;19.95;48.54;100630.25;5055792;28;20053;-49
2023/03/26 01:30:42;;;;;;;6.25;3.03;;;;;;;19.93;48.44;100627.72;5055838;28;20053;-50
2023/03/26 01:33:19;;;;;;;7.47;3.72;;;;;;;19.93;48.50;100633.09;5054533;28;20052;-50
2023/03/26 01:35:55;;;;;;;5.50;2.80;;;;;;;19.94;48.55;100631.25;5055666;28;20049;-57
2023/03/26 01:38:29;;;;;;;6.07;3.08;;;;;;;19.94;48.56;100625.88;5055788;28;20475;-57
2023/03/26 01:40:59;;;;;;;4.45;3.08;;;;;;;19.92;48.49;100626.00;5054696;28;20045;-57
2023/03/26 01:43:42;;;;;;;5.53;3.25;;;;;;;19.92;48.47;100620.63;5055418;28;20041;-57
2023/03/26 01:46:11;;;;;;;4.55;3.05;;;;;;;19.92;48.48;100623.31;5055691;28;20057;-57
2023/03/26 01:48:41;;;;;;;4.80;3.78;;;;;;;19.94;48.56;100620.50;5054397;28;20056;-57
2023/03/26 01:51:10;;;;;;;5.07;3.50;;;;;;;19.93;48.51;100613.41;5055368;28;20049;-57
2023/03/26 01:53:45;;;;;;;4.97;3.53;;;;;;;19.91;48.42;100616.25;5053928;28;20048;-57
2023/03/26 01:56:44;;;;;;;6.85;3.17;;;;;;;19.93;48.62;100610.72;5055114;28;20054;-57
2023/03/26 01:59:36;;;;;;;4.85;2.78;;;;;;;19.92;48.37;100617.09;5054121;28;20049;-58
2023/03/26 02:02:20;;;;;;;6.60;3.30;;;;;;;19.93;48.79;100613.41;5054848;28;20048;-57
2023/03/26 02:04:53;;;;;;;6.30;3.40;;;;;;;19.93;48.54;100606.22;5055068;28;20041;-57
2023/03/26 02:07:40;;;;;;;;;;;;;;;19.92;48.50;100607.19;5055635;28;20064;-56
2023/03/26 02:10:15;;;;;;;5.88;3.33;;;;;;;19.93;48.60;100602.66;5053747;28;19920;-57
2023/03/26 02:12:44;;;;;;;6.10;3.15;;;;;;;19.93;48.46;100602.66;5054783;28;20060;-57
2023/03/26 02:15:12;;;;;;;5.15;3.40;;;;;;;19.92;48.61;100590.22;5054879;28;20040;-57
2023/03/26 02:17:39;;;;;;;4.82;2.90;;;;;;;19.92;48.63;100600.97;5053501;28;20495;-57
2023/03/26 02:20:09;;;;;;;5.80;3.67;;;;;;;19.91;48.49;100585.84;5053613;28;20064;-57
2023/03/26 02:22:40;;;;;;;6.10;3.17;;;;;;;19.90;48.72;100585.00;5054586;28;20395;-57
2023/03/26 02:25:12;;;;;;;4.93;3.80;;;;;;;19.90;48.56;100581.47;5055009;28;20491;-48
2023/03/26 02:27:40;;;;;;;4.20;3.05;;;;;;;19.90;48.61;100584.16;5052839;28;20636;-48
2023/03/26 02:30:28;;;;;;;5.20;3.38;;;;;;;19.90;48.67;100584.16;5053307;28;20044;-50
2023/03/26 02:32:58;;;;;;;7.93;3.30;;;;;;;19.90;48.60;100570.75;5053044;28;20476;-48
2023/03/26 02:35:34;;;;;;;6.68;3.38;;;;;;;19.90;48.40;100581.47;5053082;28;20049;-57
2023/03/26 02:38:02;;;;;;;4.45;2.80;;;;;;;19.90;48.39;100571.56;5052845;28;20411;-57
2023/03/26 02:40:29;;;;;;;4.82;3.10;;;;;;;19.89;48.48;100569.00;5053449;28;20053;-57
2023/03/26 02:42:57;;;;;;;5.95;2.83;;;;;;;19.88;48.56;100575.38;5053089;28;20057;-57
2023/03/26 02:45:27;;;;;;;5.80;3.38;;;;;;;19.87;48.40;100571.00;5053311;28;20171;-57
2023/03/26 02:48:00;;;;;;;;;;;;;;;19.88;48.49;100570.84;5061490;28;20060;-57
2023/03/26 02:50:48;;;;;;;4.82;3.65;;;;;;;19.88;48.42;100561.97;5053016;28;19948;-57
2023/03/26 02:53:36;;;;;;;6.20;3.42;;;;;;;19.88;48.51;100567.31;5054456;28;20052;-57
2023/03/26 02:56:27;;;;;;;8.35;3.78;;;;;;;19.87;48.56;100565.63;5053895;28;20052;-50
2023/03/26 02:59:15;;;;;;;7.38;3.42;;;;;;;19.87;48.36;100555.75;5053810;28;20057;-51
2023/03/26 03:01:44;;;;;;;4.05;3.08;;;;;;;19.87;48.52;100566.47;5052329;28;20387;-49
2023/03/26 03:04:14;;;;;;;5.80;3.30;;;;;;;19.87;48.46;100562.94;5052757;28;20045;-57
2023/03/26 03:06:43;;;;;;;5.22;3.13;;;;;;;19.87;48.36;100571.00;5052245;28;20044;-57
2023/03/26 03:09:11;;;;;;;4.93;3.17;;;;;;;19.86;48.43;100580.91;5052634;28;20491;-58
2023/03/26 03:11:39;;;;;;;4.57;3.03;;;;;;;19.85;48.37;100573.84;5053373;28;20056;-57
2023/03/26 03:14:07;;;;;;;4.20;2.92;;;;;;;19.86;48.41;100582.75;5051996;28;20045;-56
2023/03/26 03:16:35;;;;;;;5.55;2.88;;;;;;;19.86;48.38;100590.81;5052551;28;20056;-49
2023/03/26 03:19:06;;;;;;;4.47;3.40;;;;;;;19.85;48.25;100587.28;5052517;28;20056;-54
2023/03/26 03:21:38;;;;;;;4.13;2.78;;;;;;;19.85;48.37;100567.59;5052538;28;20487;-49
2023/03/26 03:24:07;;;;;;;3.88;3.00;;;;;;;19.85;48.52;100578.34;5052507;28;20048;-57
2023/03/26 03:26:46;;;;;;;4.68;3.20;;;;;;;19.86;48.37;100593.50;5053461;28;20407;-57
2023/03/26 03:29:34;;;;;;;6.32;2.72;;;;;;;19.84;48.36;100587.41;5053506;28;20064;-57
2023/03/26 03:32:22;;;;;;;4.90;2.95;;;;;;;19.84;48.23;100577.50;5053520;28;20060;-56
2023/03/26 03:34:52;;;;;;;5.20;2.88;;;;;;;19.84;48.24;100572.13;5052669;28;20051;-57
2023/03/26 03:37:20;;;;;;;5.32;3.13;;;;;;;19.84;48.34;100576.66;5053650;28;20056;-57
2023/03/26 03:39:51;;;;;;;5.75;2.83;;;;;;;19.84;48.22;100571.28;5051917;28;20053;-57
2023/03/26 03:42:21;;;;;;;4.57;2.90;;;;;;;19.84;48.38;100584.72;5052121;28;20455;-57
2023/03/26 03:44:51;;;;;;;3.55;2.70;;;;;;;19.83;48.36;100588.41;5052090;28;20049;-51
2023/03/26 03:47:41;;;;;;;5.97;3.20;;;;;;;19.84;48.51;100582.03;5053269;28;20053;-50
2023/03/26 03:50:09;;;;;;;5.38;2.60;;;;;;;19.82;48.29;100579.50;5051800;28;20045;-51
2023/03/26 03:52:43;;;;;;;4.47;2.90;;;;;;;19.83;48.28;100569.59;5051993;28;20522;-49
2023/03/26 03:55:12;;;;;;;5.03;3.20;;;;;;;19.81;48.46;100569.75;5052472;28;20056;-50
2023/03/26 03:57:48;;;;;;;5.60;3.22;;;;;;;19.82;48.38;100571.44;5052031;28;20048;-51
2023/03/26 04:00:19;;;;;;;6.35;3.78;;;;;;;19.82;48.25;100568.75;5052330;28;20053;-54
2023/03/26 04:02:58;;;;;;;4.32;2.97;;;;;;;19.82;48.30;100567.91;5052091;28;20056;-50
2023/03/26 04:05:27;;;;;;;8.07;3.58;;;;;;;19.83;48.60;100569.59;5052314;28;20052;-57
2023/03/26 04:07:55;;;;;;;4.88;3.00;;;;;;;19.82;48.41;100573.28;5052209;28;20053;-56
2023/03/26 04:10:25;;;;;;;6.95;3.47;;;;;;;19.82;48.40;100571.44;5053210;28;20053;-57
2023/03/26 04:13:12;;;;;;;5.28;3.33;;;;;;;19.82;48.51;100582.19;5060070;28;20502;-57
2023/03/26 04:15:54;;;;;;;;;;;;;;;19.82;48.31;100589.41;5060333;28;20056;-56
2023/03/26 04:18:22;;;;;;;4.10;3.50;;;;;;;19.81;48.35;100583.19;5052176;28;20375;-56
2023/03/26 04:20:50;;;;;;;6.43;3.15;;;;;;;19.81;48.31;100585.88;5053152;28;20502;-57
2023/03/26 04:23:25;;;;;;;5.38;3.42;;;;;;;19.82;48.23;100575.97;5052762;28;20048;-57
2023/03/26 04:26:05;;;;;;;5.53;3.85;;;;;;;19.81;48.11;100587.69;5055210;28;20052;-49
2023/03/26 04:29:01;;;;;;;4.47;2.97;;;;;;;19.81;48.12;100587.69;5059473;28;20056;-52
2023/03/26 04:31:30;;;;;;;5.65;3.90;;;;;;;19.80;48.23;100586.00;5054979;28;20049;-53
2023/03/26 04:34:06;;;;;;;4.80;3.05;;;;;;;19.81;48.37;100582.31;5055137;28;20064;-57
2023/03/26 04:36:41;;;;;;;4.43;3.17;;;;;;;19.81;48.61;100571.56;5055093;28;20052;-57
2023/03/26 04:39:11;;;;;;;3.50;3.00;;;;;;;19.81;48.69;100568.88;5055674;28;20053;-57
2023/03/26 04:41:58;;;;;;;9.70;3.92;;;;;;;19.81;48.53;100568.88;5063427;28;20068;-57
2023/03/26 04:44:33;;;;;;;5.65;3.95;;;;;;;19.80;48.26;100570.72;5055349;28;20053;-57
2023/03/26 04:47:05;;;;;;;6.03;3.78;;;;;;;19.80;48.23;100568.03;5054972;28;20057;-57
2023/03/26 04:49:44;;;;;;;4.80;3.38;;;;;;;19.80;48.62;100562.66;5055122;28;20053;-56
2023/03/26 04:52:14;;;;;;;5.07;3.17;;;;;;;19.81;48.73;100563.50;5055257;28;20526;-57
2023/03/26 04:54:57;;;;;;;5.40;3.40;;;;;;;19.81;48.44;100558.13;5056544;28;20388;-57
2023/03/26 04:57:36;;;;;;;5.22;3.30;;;;;;;19.80;48.63;100553.75;5054914;28;20056;-57
2023/03/26 05:00:17;;;;;;;4.38;3.00;;;;;;;19.80;48.39;100554.59;5054974;28;20135;-58
2023/03/26 05:02:52;;;;;;;6.82;3.60;;;;;;;19.81;48.28;100560.81;5054788;28;20057;-55
2023/03/26 05:05:21;;;;;;;6.22;3.35;;;;;;;19.80;48.31;100548.38;5054887;28;20044;-57
2023/03/26 05:07:49;;;;;;;6.22;4.00;;;;;;;19.78;48.45;100545.84;5054892;28;20064;-57
2023/03/26 05:10:19;;;;;;;5.03;3.63;;;;;;;19.78;48.43;100548.53;5054450;28;20056;-57
2023/03/26 05:12:54;;;;;;;4.85;3.33;;;;;;;19.78;48.10;100551.22;5054788;28;20438;-57
2023/03/26 05:15:26;;;;;;;4.80;3.53;;;;;;;19.78;48.28;100548.53;5054960;28;20045;-51
2023/03/26 05:17:54;;;;;;;4.40;3.00;;;;;;;19.78;48.11;100550.38;5056087;28;20053;-52
2023/03/26 05:20:29;;;;;;;5.40;4.03;;;;;;;19.76;48.20;100543.28;5055556;28;20486;-57
2023/03/26 05:22:57;;;;;;;5.07;3.70;;;;;;;19.76;48.08;100529.00;5054383;28;20049;-59
2023/03/26 05:25:30;;;;;;;5.35;3.65;;;;;;;19.75;48.11;100530.84;5054696;28;20052;-52
2023/03/26 05:28:00;;;;;;;6.43;4.43;;;;;;;19.75;48.23;100536.22;5053900;28;20053;-49
2023/03/26 05:30:47;;;;;;;5.35;4.05;;;;;;;19.75;48.17;100538.91;5055559;28;20499;-48
2023/03/26 05:33:15;;;;;;;7.78;4.80;;;;;;;19.75;48.17;100536.22;5054532;28;20064;-49
2023/03/26 05:36:05;;;;;;;6.47;4.50;;;;;;;19.75;48.23;100532.69;5053190;28;20049;-51
2023/03/26 05:38:34;;;;;;;6.88;4.13;;;;;;;19.73;48.08;100530.16;5054582;28;20400;-51
2023/03/26 05:41:06;;;;;;;7.68;4.45;;;;;;;19.74;48.11;100531.84;5053887;28;20049;-51
2023/03/26 05:43:35;;;;;;;8.65;4.93;;;;;;;19.73;48.17;100546.28;5054170;28;20495;-52
2023/03/26 05:46:11;;;;;;;5.43;4.03;;;;;;;19.72;48.10;100541.88;5054082;28;20053;-50
2023/03/26 05:48:38;;;;;;;7.38;4.13;;;;;;;19.72;48.16;100535.66;5054035;28;20060;-49
2023/03/26 05:51:07;;;;;;;7.78;4.70;;;;;;;19.72;48.04;100543.72;5053877;28;20052;-49
2023/03/26 05:53:39;;;;;;;4.75;4.13;;;;;;;19.72;47.91;100554.47;5053769;28;20064;-49
2023/03/26 05:56:30;;;;;;;6.70;4.18;;;;;;;19.71;47.93;100545.56;5055113;28;20049;-57
2023/03/26 05:59:16;;;;;;;5.78;4.68;;;;;;;19.72;47.98;100549.94;5061985;28;20063;-57
2023/03/26 06:02:02;;;;;;;6.95;5.05;;;;;;;19.71;47.94;100552.78;5062215;28;20052;-56
2023/03/26 06:04:39;;;;;;;7.78;4.90;;;;;;;19.70;47.97;100561.81;5061826;28;20056;-57
2023/03/26 06:07:40;;;;;;;5.72;4.25;;;;;;;19.70;48.11;100565.34;5053201;28;20041;-56
2023/03/26 06:10:18;;;;;;;7.82;4.82;;;;;;;19.71;47.99;100555.47;5054837;28;20056;-57
2023/03/26 06:12:46;;;;;;;6.53;5.03;;;;;;;19.70;48.03;100551.94;5053554;28;20060;-56
2023/03/26 06:15:14;;;;;;;6.88;5.13;;;;;;;19.70;47.85;100551.09;5053443;28;20057;-56
2023/03/26 06:17:57;;;;;;;9.65;5.80;;;;;;;19.69;48.02;100536.81;5053221;28;20057;-56
2023/03/26 06:20:36;;;;;;;5.90;4.55;;;;;;;19.69;48.01;100542.19;5054623;28;20479;-57
2023/03/26 06:23:10;;;;;;;6.00;4.60;;;;;;;19.69;47.95;100544.88;5052895;28;20060;-56
2023/03/26 06:25:54;;;;;;;6.15;4.25;;;;;;;19.69;48.00;100530.59;5053335;28;20037;-49
2023/03/26 06:28:40;;;;;;;6.10;4.55;;;;;;;19.69;48.10;100520.69;5053562;28;20048;-48
2023/03/26 06:31:26;;;;;;;7.05;4.15;;;;;;;19.70;47.96;100526.91;5061463;28;20056;-50
2023/03/26 06:34:12;;;;;;;4.28;3.60;;;;;;;19.69;48.13;100526.06;5052902;28;20053;-58
2023/03/26 06:36:42;;;;;;;7.10;4.53;;;;;;;19.69;47.92;100525.22;5053226;28;20056;-58
2023/03/26 06:39:11;;;;;;;5.82;4.18;;;;;;;19.68;47.91;100518.97;5052825;28;20495;-59
2023/03/26 06:41:48;;;;;;;4.93;3.85;;;;;;;19.68;48.06;100518.97;5052877;28;20064;-58
2023/03/26 06:44:35;;;;;;;5.53;3.97;;;;;;;19.68;48.09;100513.59;5052875;28;20064;-51
2023/03/26 06:47:32;;;;;;;6.20;4.43;;;;;;;19.68;47.86;100518.13;5052441;28;20088;-51
2023/03/26 06:50:11;;;;;;;6.00;4.00;;;;;;;19.68;47.98;100524.34;5060980;28;20553;-48
2023/03/26 06:52:57;;;;;;;10.45;4.72;;;;;;;19.68;48.03;100516.28;5052693;28;20487;-51
2023/03/26 06:55:40;;;;;;;5.05;3.67;;;;;;;19.67;48.21;100517.28;5052998;28;20070;-49
2023/03/26 06:58:26;;;;;;;5.50;3.72;;;;;;;19.69;48.28;100515.31;5053078;28;20050;-53
2023/03/26 07:01:12;;;;;;;4.72;3.75;;;;;;;19.69;48.33;100517.16;5060905;28;20060;-50
2023/03/26 07:03:57;;;;;;;6.25;4.45;;;;;;;19.68;48.40;100502.88;5060738;28;20063;-51
2023/03/26 07:06:52;;;;;;;5.53;3.95;;;;;;;19.69;48.37;100501.91;5053225;28;20491;-57
2023/03/26 07:09:38;;;;;;;5.72;4.03;;;;;;;19.70;48.28;100506.28;5060804;28;20064;-58
2023/03/26 07:12:37;;;;;;;5.13;3.75;;;;;;;19.70;48.36;100492.84;5053071;28;20057;-58
2023/03/26 07:15:27;;;;;;;4.47;3.33;;;;;;;19.70;48.36;100494.69;5042580;28;20064;-47
2023/03/26 07:17:55;;;;;;;6.53;4.15;;;;;;;19.69;48.30;100501.91;5053718;28;20041;-49
2023/03/26 07:20:30;;;;;;;5.72;3.65;;;;;;;19.69;48.44;100504.59;5053567;28;20037;-51
2023/03/26 07:22:58;;;;;;;8.57;3.97;;;;;;;19.70;48.47;100511.66;5053577;28;20045;-49
2023/03/26 07:25:34;;;;;;;5.10;3.88;;;;;;;19.69;48.40;100512.63;5060297;28;20431;-51
2023/03/26 07:28:33;;;;;;;7.88;4.60;;;;;;;19.70;48.53;100503.59;5053619;28;20045;-53
2023/03/26 07:31:35;;;;;;;4.50;4.05;;;;;;;19.70;48.39;100502.75;5053573;28;20107;-50
2023/03/26 07:34:45;;;;;;;6.45;4.53;;;;;;;19.69;48.52;100499.22;5060354;28;20052;-48
2023/03/26 07:37:53;;;;;;;6.70;4.85;;;;;;;19.70;48.47;100511.66;5052177;28;20049;-51
2023/03/26 07:40:52;;;;;;;6.18;4.55;;;;;;;19.71;48.52;100509.81;5052137;28;20073;-48
2023/03/26 07:44:03;;;;;;;7.15;4.13;;;;;;;19.72;48.52;100506.13;5060423;28;20056;-51
2023/03/26 07:46:48;;;;;;;6.60;4.63;;;;;;;19.71;48.66;100507.13;5051991;28;20053;-49
2023/03/26 07:49:34;;;;;;;5.38;4.47;;;;;;;19.71;48.64;100507.13;5052305;28;20060;-52
2023/03/26 07:52:09;;;;;;;5.18;3.90;;;;;;;19.72;48.62;100500.75;5059969;28;20068;-49
2023/03/26 07:55:16;;;;;;;5.97;4.50;;;;;;;19.72;48.72;100493.53;5051661;28;20060;-57
2023/03/26 07:58:29;;;;;;;7.45;4.47;;;;;;;19.73;48.70;100489.03;5057929;28;20056;-57
2023/03/26 08:01:23;;;;;;;6.00;4.10;;;;;;;19.73;48.55;100481.81;5058153;28;20060;-58
2023/03/26 08:04:23;;;;;;;5.38;4.35;;;;;;;19.73;48.81;100472.91;5057119;28;20056;-58
2023/03/26 08:07:46;;;;;;;5.03;4.05;;;;;;;19.73;48.55;100473.75;5056071;28;20048;-58
2023/03/26 08:10:34;;;;;;;5.57;4.55;;;;;;;19.74;48.60;100462.03;5056267;28;20045;-58
2023/03/26 08:13:29;;;;;;;6.03;4.55;;;;;;;19.74;48.56;100453.13;5055799;28;20060;-58
2023/03/26 08:15:57;;;;;;;5.53;4.50;;;;;;;19.74;48.71;100453.97;5057245;28;20060;-49
2023/03/26 08:18:45;;;;;;;5.72;4.60;;;;;;;19.75;48.75;100454.81;5057064;28;20045;-49
2023/03/26 08:21:30;;;;;;;6.55;4.93;;;;;;;19.74;48.88;100462.03;5057064;28;20045;-48
2023/03/26 08:24:05;;;;;;;5.65;3.85;;;;;;;19.75;48.76;100458.34;5056975;28;20045;-54
2023/03/26 08:27:00;;;;;;;5.05;3.65;;;;;;;19.76;49.07;100451.97;5056661;28;20491;-48
2023/03/26 08:29:27;;;;;;;5.30;3.92;;;;;;;19.76;49.03;100441.22;5056877;28;20052;-52
2023/03/26 08:31:56;;;;;;;5.05;3.63;;;;;;;19.76;48.90;100438.53;5056805;28;20045;-49
2023/03/26 08:34:23;;;;;;;4.90;4.22;;;;;;;19.76;48.96;100443.91;5056640;28;20049;-58
2023/03/26 08:36:50;;;;;;;5.78;3.67;;;;;;;19.78;48.99;100441.09;5056688;28;20041;-58
2023/03/26 08:39:21;;;;;;;4.50;3.78;;;;;;;19.78;48.92;100437.56;5055667;28;20064;-58
2023/03/26 08:42:00;;;;;;;7.05;4.10;;;;;;;19.78;48.98;100432.19;5056706;28;20056;-57
2023/03/26 08:45:05;;;;;;;4.47;3.20;;;;;;;19.79;49.17;100423.97;5056719;28;20056;-48
2023/03/26 08:48:00;;;;;;;6.03;3.70;;;;;;;19.80;48.90;100435.56;5055354;28;20045;-51
2023/03/26 08:50:49;;;;;;;5.07;3.85;;;;;;;19.81;49.14;100431.88;5055731;28;20479;-48
2023/03/26 08:54:03;;;;;;;5.15;4.05;;;;;;;19.81;49.15;100438.13;5055376;28;20041;-48
2023/03/26 08:56:44;;;;;;;7.57;4.63;;;;;;;19.81;49.05;100424.69;5053922;28;20652;-57
2023/03/26 08:59:33;;;;;;;5.45;3.78;;;;;;;19.83;49.21;100421.84;5055773;28;20087;-57
2023/03/26 09:02:22;;;;;;;6.78;5.13;;;;;;;19.84;49.02;100421.69;5056091;28;20044;-58
2023/03/26 09:05:27;;;;;;;9.55;6.75;;;;;;;19.83;48.81;100421.84;5055979;28;20052;-50
2023/03/26 09:08:27;;;;;;;12.63;8.13;;;;;;;19.78;48.81;100413.41;5056044;28;20045;-52
2023/03/26 09:11:14;;;;;;;10.30;7.95;;;;;;;19.73;48.86;100416.53;5053834;28;20391;-52
2023/03/26 09:14:19;;;;;;;10.95;7.00;;;;;;;19.68;49.15;100421.44;5056000;28;20399;-53
2023/03/26 09:17:14;;;;;;;10.93;8.90;;;;;;;19.68;48.83;100410.72;5068670;28;20053;-53
2023/03/26 09:20:01;;;;;;;12.18;9.52;;;;;;;19.65;48.60;100417.22;5075755;28;20067;-55
2023/03/26 09:23:20;;;;;;;12.02;7.38;;;;;;;19.63;48.72;100413.00;5074666;28;20052;-55
2023/03/26 09:26:05;;;;;;;11.52;8.38;;;;;;;19.60;48.88;100413.25;5074271;28;20056;-58
2023/03/26 09:28:57;;;;;;;8.25;6.70;;;;;;;19.60;49.50;100414.06;5072162;28;20045;-59
2023/03/26 09:31:27;;;;;;;8.40;5.60;;;;;;;19.64;50.09;100399.41;5075624;28;20055;-56
2023/03/26 09:34:26;;;;;;;6.50;5.07;;;;;;;19.69;50.54;100391.78;5074749;28;20583;-58
2023/03/26 09:37:04;;;;;;;8.45;6.55;;;;;;;19.73;49.79;100384.28;5075516;28;20372;-58
2023/03/26 09:39:50;;;;;;;12.18;6.63;;;;;;;19.75;49.30;100366.19;5075424;28;20051;-58
2023/03/26 09:42:42;;;;;;;8.38;6.22;;;;;;;19.77;49.30;100369.56;5075449;28;20045;-58
2023/03/26 09:45:25;;;;;;;10.05;6.78;;;;;;;19.78;49.61;100378.47;5075475;28;20048;-57
2023/03/26 09:48:18;;;;;;;11.88;6.70;;;;;;;19.73;48.33;100369.03;5075174;28;20041;-57
2023/03/26 09:51:07;;;;;;;8.48;7.05;;;;;;;19.73;48.13;100365.50;5075336;28;20049;-57
2023/03/26 09:53:56;;;;;;;12.57;8.73;;;;;;;19.70;47.81;100363.09;5075107;28;20052;-57
2023/03/26 09:56:53;;;;;;;11.48;7.75;;;;;;;19.66;48.14;100367.91;5075247;28;20052;-58
2023/03/26 09:59:47;;;;;;;9.70;7.57;;;;;;;19.64;48.07;100355.59;5073900;28;20059;-57
2023/03/26 10:02:39;;;;;;;11.65;7.70;;;;;;;19.62;48.27;100347.69;5074859;28;20048;-57
2023/03/26 10:05:45;;;;;;;9.35;7.22;;;;;;;19.62;48.15;100349.53;5074902;28;20044;-57
2023/03/26 10:08:28;;;;;;;11.77;7.28;;;;;;;19.62;47.96;100344.16;5074339;28;20056;-58
2023/03/26 10:11:16;;;;;;;7.35;5.82;;;;;;;19.63;48.39;100330.59;5074902;28;20479;-58
2023/03/26 10:13:57;;;;;;;10.20;6.15;;;;;;;19.66;48.60;100324.94;5073478;28;20498;-59
2023/03/26 10:16:48;;;;;;;8.23;5.40;;;;;;;19.71;48.56;100324.50;5074899;28;20509;-58
2023/03/26 10:19:27;;;;;;;9.45;5.40;;;;;;;19.74;48.83;100311.63;5074565;28;20280;-59
2023/03/26 10:22:16;;;;;;;7.50;4.20;;;;;;;19.76;48.74;100311.47;5073480;28;20049;-59
2023/03/26 10:24:55;;;;;;;7.72;4.00;;;;;;;19.78;48.98;100304.13;5074338;28;20413;-48
2023/03/26 10:27:32;;;;;;;7.50;4.18;;;;;;;19.79;49.08;100294.22;5074392;28;20151;-50
2023/03/26 10:30:08;;;;;;;4.88;3.58;;;;;;;19.82;48.99;100304.66;5074414;28;20518;-49
2023/03/26 10:32:54;;;;;;;5.97;4.07;;;;;;;19.83;48.93;100298.28;5074487;28;20049;-50
2023/03/26 10:35:30;;;;;;;7.82;4.38;;;;;;;19.85;48.91;100296.28;5073290;28;20052;-48
2023/03/26 10:38:36;;;;;;;7.47;3.78;;;;;;;19.85;49.20;100282.84;5074569;28;20071;-52
2023/03/26 10:41:07;;;;;;;5.38;3.70;;;;;;;19.85;49.19;100266.75;5073657;28;20061;-52
2023/03/26 10:43:44;;;;;;;6.65;3.50;;;;;;;19.86;49.18;100263.09;5074211;28;20040;-47
2023/03/26 10:46:37;;;;;;;7.53;3.60;;;;;;;19.87;49.24;100264.78;5074139;28;20386;-48
2023/03/26 10:49:05;;;;;;;7.00;2.95;;;;;;;19.87;49.31;100254.03;5073907;28;20041;-50
2023/03/26 10:51:50;;;;;;;5.18;3.22;;;;;;;19.87;49.17;100249.50;5074171;28;20044;-48
2023/03/26 10:54:40;;;;;;;7.18;3.35;;;;;;;19.89;49.28;100238.59;5056778;28;20055;-58
2023/03/26 10:57:24;;;;;;;6.13;3.13;;;;;;;19.90;49.26;100234.94;5073946;28;20051;-58
2023/03/26 10:59:57;;;;;;;5.22;3.05;;;;;;;19.90;49.28;100235.78;5073874;28;20055;-58
2023/03/26 11:02:35;;;;;;;6.75;3.25;;;;;;;19.90;49.57;100234.94;5074024;28;20051;-58
2023/03/26 11:05:18;;;;;;;6.60;3.40;;;;;;;19.90;49.82;100235.78;5073996;28;20393;-58
2023/03/26 11:08:00;;;;;;;6.00;3.20;;;;;;;19.91;49.76;100229.41;5073929;28;20486;-58
2023/03/26 11:10:51;;;;;;;4.45;2.80;;;;;;;19.91;50.00;100228.56;5073701;28;20051;-58
2023/03/26 11:13:30;;;;;;;5.00;2.70;;;;;;;19.92;49.87;100222.19;5073790;28;20052;-58
2023/03/26 11:16:04;;;;;;;5.47;2.80;;;;;;;19.93;49.64;100210.44;5073986;28;20048;-50
2023/03/26 11:18:38;;;;;;;6.38;2.83;;;;;;;19.92;50.04;100198.84;5072429;28;20049;-49
2023/03/26 11:21:16;;;;;;;5.28;2.72;;;;;;;19.93;49.91;100199.69;5073803;28;20059;-50
2023/03/26 11:24:01;;;;;;;6.03;2.90;;;;;;;19.92;50.31;100190.78;5073522;28;20402;-52
2023/03/26 11:26:41;;;;;;;5.32;2.53;;;;;;;19.93;50.26;100178.19;5073371;28;20069;-50
2023/03/26 11:29:46;;;;;;;6.90;2.95;;;;;;;19.93;50.09;100179.06;5073463;28;20051;-49
2023/03/26 11:32:19;;;;;;;5.18;2.78;;;;;;;19.94;50.16;100187.97;5073585;28;20502;-49
2023/03/26 11:34:57;;;;;;;8.15;3.50;;;;;;;19.94;50.12;100206.78;5073251;28;20044;-58
2023/03/26 11:37:34;;;;;;;6.13;3.42;;;;;;;19.95;50.51;100216.50;5072408;28;20051;-58
2023/03/26 11:40:10;;;;;;;7.05;3.55;;;;;;;19.94;50.84;100212.97;5072471;28;20059;-58
2023/03/26 11:42:39;;;;;;;9.88;3.65;;;;;;;19.94;50.87;100202.25;5072841;28;20060;-58
2023/03/26 11:45:15;;;;;;;8.98;3.35;;;;;;;19.93;51.02;100203.25;5072884;28;20052;-49
2023/03/26 11:47:49;;;;;;;8.60;3.20;;;;;;;19.92;50.90;100190.78;5072820;28;20052;-50
2023/03/26 11:50:24;;;;;;;7.88;3.72;;;;;;;19.93;50.83;100184.44;5073206;28;20060;-49
2023/03/26 11:53:11;;;;;;;10.15;3.40;;;;;;;19.92;50.83;100173.81;5071822;28;20045;-49
2023/03/26 11:55:43;;;;;;;7.13;3.38;;;;;;;19.91;50.80;100167.59;5072902;28;20438;-58
2023/03/26 11:58:23;;;;;;;5.77;3.13;;;;;;;19.92;50.90;100161.22;5072887;28;20053;-58
2023/03/26 12:00:53;;;;;;;11.05;2.60;;;;;;;19.91;50.96;100164.09;5072780;28;20059;-58
2023/03/26 12:03:21;;;;;;;6.60;3.40;;;;;;;19.92;50.86;100160.38;5071709;28;20048;-58
2023/03/26 12:05:58;;;;;;;7.38;2.97;;;;;;;19.92;50.91;100163.91;5072790;28;20479;-47
2023/03/26 12:08:38;;;;;;;4.97;2.67;;;;;;;19.92;50.57;100163.91;5072629;28;20040;-50
2023/03/26 12:11:11;;;;;;;7.20;2.92;;;;;;;19.91;50.52;100172.97;5071688;28;20510;-48
2023/03/26 12:13:40;;;;;;;7.75;3.53;;;;;;;19.92;50.62;100160.38;5072597;28;20040;-50
2023/03/26 12:16:14;;;;;;;7.43;3.17;;;;;;;19.91;50.42;100156.88;5072687;28;20071;-48
2023/03/26 12:18:44;;;;;;;10.57;3.55;;;;;;;19.91;50.48;100150.66;5072549;28;20479;-47
2023/03/26 12:21:16;;;;;;;6.55;3.45;;;;;;;19.92;50.51;100146.97;5072569;28;20048;-50